sensor_id;sensor_type;location;lat;lon;timestamp;P1;durP1;ratioP1;P2;durP2;ratioP2
13366;SDS011;6752;52.612;13.630;2023-09-19T00:00:57;4.90;;;2.70;;
13366;SDS011;6752;52.612;13.630;2023-09-19T00:05:59;6.10;;;2.90;;
13366;SDS011;6752;52.612;13.630;2023-09-19T00:11:01;7.67;;;3.10;;
13366;SDS011;6752;52.612;13.630;2023-09-19T00:16:09;4.17;;;2.60;;
13366;SDS011;6752;52.612;13.630;2023-09-19T00:21:11;4.43;;;2.70;;
13366;SDS011;6752;52.612;13.630;2023-09-19T00:26:13;4.77;;;2.80;;
13366;SDS011;6752;52.612;13.630;2023-09-19T00:31:16;5.30;;;3.13;;
13366;SDS011;6752;52.612;13.630;2023-09-19T00:36:18;7.70;;;3.00;;
13366;SDS011;6752;52.612;13.630;2023-09-19T00:41:21;4.43;;;2.73;;
13366;SDS011;6752;52.612;13.630;2023-09-19T00:46:23;4.43;;;2.40;;
13366;SDS011;6752;52.612;13.630;2023-09-19T00:51:26;4.17;;;2.63;;
13366;SDS011;6752;52.612;13.630;2023-09-19T00:56:28;3.40;;;2.70;;
13366;SDS011;6752;52.612;13.630;2023-09-19T01:01:30;3.13;;;2.53;;
13366;SDS011;6752;52.612;13.630;2023-09-19T01:06:33;3.37;;;2.50;;
13366;SDS011;6752;52.612;13.630;2023-09-19T01:11:37;5.47;;;3.07;;
13366;SDS011;6752;52.612;13.630;2023-09-19T01:17:03;4.10;;;2.90;;
13366;SDS011;6752;52.612;13.630;2023-09-19T01:21:55;4.87;;;2.77;;
13366;SDS011;6752;52.612;13.630;2023-09-19T01:27:17;4.33;;;2.53;;
13366;SDS011;6752;52.612;13.630;2023-09-19T01:32:32;3.27;;;2.80;;
13366;SDS011;6752;52.612;13.630;2023-09-19T01:37:35;3.63;;;2.70;;
13366;SDS011;6752;52.612;13.630;2023-09-19T01:42:38;4.93;;;3.00;;
13366;SDS011;6752;52.612;13.630;2023-09-19T01:47:44;3.17;;;2.70;;
13366;SDS011;6752;52.612;13.630;2023-09-19T01:52:54;4.33;;;2.60;;
13366;SDS011;6752;52.612;13.630;2023-09-19T01:58:12;5.57;;;2.77;;
13366;SDS011;6752;52.612;13.630;2023-09-19T02:03:11;3.83;;;2.43;;
13366;SDS011;6752;52.612;13.630;2023-09-19T02:08:15;4.07;;;2.50;;
13366;SDS011;6752;52.612;13.630;2023-09-19T02:13:20;4.53;;;2.43;;
13366;SDS011;6752;52.612;13.630;2023-09-19T02:18:18;2.80;;;2.20;;
13366;SDS011;6752;52.612;13.630;2023-09-19T02:23:20;5.03;;;3.03;;
13366;SDS011;6752;52.612;13.630;2023-09-19T02:28:22;4.27;;;2.60;;
13366;SDS011;6752;52.612;13.630;2023-09-19T02:33:25;3.60;;;3.10;;
13366;SDS011;6752;52.612;13.630;2023-09-19T02:38:27;3.67;;;2.70;;
13366;SDS011;6752;52.612;13.630;2023-09-19T02:43:29;3.73;;;2.73;;
13366;SDS011;6752;52.612;13.630;2023-09-19T02:48:34;3.37;;;2.50;;
13366;SDS011;6752;52.612;13.630;2023-09-19T02:53:37;2.97;;;2.53;;
13366;SDS011;6752;52.612;13.630;2023-09-19T02:58:39;3.83;;;2.50;;
13366;SDS011;6752;52.612;13.630;2023-09-19T03:03:42;3.90;;;3.20;;
13366;SDS011;6752;52.612;13.630;2023-09-19T03:08:44;5.00;;;2.80;;
13366;SDS011;6752;52.612;13.630;2023-09-19T03:13:50;4.13;;;3.00;;
13366;SDS011;6752;52.612;13.630;2023-09-19T03:18:55;4.33;;;2.70;;
13366;SDS011;6752;52.612;13.630;2023-09-19T03:23:57;4.13;;;2.33;;
13366;SDS011;6752;52.612;13.630;2023-09-19T03:28:59;3.27;;;2.57;;
13366;SDS011;6752;52.612;13.630;2023-09-19T03:34:02;4.50;;;2.80;;
13366;SDS011;6752;52.612;13.630;2023-09-19T03:39:04;3.70;;;2.40;;
13366;SDS011;6752;52.612;13.630;2023-09-19T03:44:06;3.20;;;2.50;;
13366;SDS011;6752;52.612;13.630;2023-09-19T03:49:09;3.37;;;2.13;;
13366;SDS011;6752;52.612;13.630;2023-09-19T03:54:11;4.07;;;2.13;;
13366;SDS011;6752;52.612;13.630;2023-09-19T03:59:13;2.40;;;1.80;;
13366;SDS011;6752;52.612;13.630;2023-09-19T04:04:16;2.83;;;1.60;;
13366;SDS011;6752;52.612;13.630;2023-09-19T04:09:18;4.17;;;1.87;;
13366;SDS011;6752;52.612;13.630;2023-09-19T04:14:21;2.57;;;1.70;;
13366;SDS011;6752;52.612;13.630;2023-09-19T04:19:23;3.00;;;1.63;;
13366;SDS011;6752;52.612;13.630;2023-09-19T04:24:25;2.80;;;1.70;;
13366;SDS011;6752;52.612;13.630;2023-09-19T04:29:28;3.22;;;2.03;;
13366;SDS011;6752;52.612;13.630;2023-09-19T04:34:30;2.93;;;2.00;;
13366;SDS011;6752;52.612;13.630;2023-09-19T04:39:32;2.77;;;1.80;;
13366;SDS011;6752;52.612;13.630;2023-09-19T04:44:35;2.40;;;1.90;;
13366;SDS011;6752;52.612;13.630;2023-09-19T04:49:37;3.43;;;2.00;;
13366;SDS011;6752;52.612;13.630;2023-09-19T04:54:39;4.27;;;2.10;;
13366;SDS011;6752;52.612;13.630;2023-09-19T04:59:42;2.40;;;1.90;;
13366;SDS011;6752;52.612;13.630;2023-09-19T05:04:44;3.80;;;2.13;;
13366;SDS011;6752;52.612;13.630;2023-09-19T05:09:47;2.87;;;2.10;;
13366;SDS011;6752;52.612;13.630;2023-09-19T05:14:49;3.10;;;2.60;;
13366;SDS011;6752;52.612;13.630;2023-09-19T05:19:51;3.73;;;2.60;;
13366;SDS011;6752;52.612;13.630;2023-09-19T05:24:54;3.10;;;2.43;;
13366;SDS011;6752;52.612;13.630;2023-09-19T05:29:56;3.37;;;2.30;;
13366;SDS011;6752;52.612;13.630;2023-09-19T05:34:58;3.10;;;2.47;;
13366;SDS011;6752;52.612;13.630;2023-09-19T05:40:01;4.13;;;2.57;;
13366;SDS011;6752;52.612;13.630;2023-09-19T05:45:03;2.60;;;2.10;;
13366;SDS011;6752;52.612;13.630;2023-09-19T05:50:05;2.23;;;2.03;;
13366;SDS011;6752;52.612;13.630;2023-09-19T05:55:08;2.77;;;2.33;;
13366;SDS011;6752;52.612;13.630;2023-09-19T06:00:10;3.13;;;2.33;;
13366;SDS011;6752;52.612;13.630;2023-09-19T06:05:13;3.37;;;2.50;;
13366;SDS011;6752;52.612;13.630;2023-09-19T06:10:15;3.37;;;2.50;;
13366;SDS011;6752;52.612;13.630;2023-09-19T06:15:17;3.27;;;2.40;;
13366;SDS011;6752;52.612;13.630;2023-09-19T06:20:23;3.07;;;2.30;;
13366;SDS011;6752;52.612;13.630;2023-09-19T06:25:25;2.77;;;2.27;;
13366;SDS011;6752;52.612;13.630;2023-09-19T06:30:27;3.93;;;2.33;;
13366;SDS011;6752;52.612;13.630;2023-09-19T06:35:31;2.90;;;2.10;;
13366;SDS011;6752;52.612;13.630;2023-09-19T06:40:33;4.10;;;2.30;;
13366;SDS011;6752;52.612;13.630;2023-09-19T06:45:34;4.67;;;2.20;;
13366;SDS011;6752;52.612;13.630;2023-09-19T06:50:37;4.63;;;2.70;;
13366;SDS011;6752;52.612;13.630;2023-09-19T06:55:39;4.20;;;2.20;;
13366;SDS011;6752;52.612;13.630;2023-09-19T07:00:42;3.57;;;2.37;;
13366;SDS011;6752;52.612;13.630;2023-09-19T07:05:44;5.70;;;2.80;;
13366;SDS011;6752;52.612;13.630;2023-09-19T07:10:46;4.93;;;2.80;;
13366;SDS011;6752;52.612;13.630;2023-09-19T07:15:49;5.57;;;2.70;;
13366;SDS011;6752;52.612;13.630;2023-09-19T07:20:56;4.97;;;2.77;;
13366;SDS011;6752;52.612;13.630;2023-09-19T07:25:56;3.90;;;2.67;;
13366;SDS011;6752;52.612;13.630;2023-09-19T07:30:56;5.70;;;3.10;;
13366;SDS011;6752;52.612;13.630;2023-09-19T07:35:58;4.28;;;2.60;;
13366;SDS011;6752;52.612;13.630;2023-09-19T07:41:01;6.13;;;2.43;;
13366;SDS011;6752;52.612;13.630;2023-09-19T07:46:06;4.27;;;2.30;;
13366;SDS011;6752;52.612;13.630;2023-09-19T07:51:11;3.17;;;2.03;;
13366;SDS011;6752;52.612;13.630;2023-09-19T07:56:13;3.73;;;2.30;;
13366;SDS011;6752;52.612;13.630;2023-09-19T08:01:16;4.30;;;2.00;;
13366;SDS011;6752;52.612;13.630;2023-09-19T08:06:18;4.90;;;2.13;;
13366;SDS011;6752;52.612;13.630;2023-09-19T08:11:20;4.60;;;2.07;;
13366;SDS011;6752;52.612;13.630;2023-09-19T08:16:23;4.03;;;2.20;;
13366;SDS011;6752;52.612;13.630;2023-09-19T08:21:25;4.27;;;2.13;;
13366;SDS011;6752;52.612;13.630;2023-09-19T08:26:27;3.87;;;2.42;;
13366;SDS011;6752;52.612;13.630;2023-09-19T08:31:30;3.43;;;2.43;;
13366;SDS011;6752;52.612;13.630;2023-09-19T08:36:32;4.93;;;2.43;;
13366;SDS011;6752;52.612;13.630;2023-09-19T08:41:34;5.17;;;2.40;;
13366;SDS011;6752;52.612;13.630;2023-09-19T08:46:37;5.13;;;2.60;;
13366;SDS011;6752;52.612;13.630;2023-09-19T08:51:43;4.57;;;2.33;;
13366;SDS011;6752;52.612;13.630;2023-09-19T08:56:44;5.37;;;2.30;;
13366;SDS011;6752;52.612;13.630;2023-09-19T09:01:47;4.87;;;2.83;;
13366;SDS011;6752;52.612;13.630;2023-09-19T09:06:49;4.70;;;2.83;;
13366;SDS011;6752;52.612;13.630;2023-09-19T09:11:51;6.10;;;2.77;;
13366;SDS011;6752;52.612;13.630;2023-09-19T09:16:54;6.63;;;2.97;;
13366;SDS011;6752;52.612;13.630;2023-09-19T09:22:05;5.70;;;2.63;;
13366;SDS011;6752;52.612;13.630;2023-09-19T09:27:10;4.60;;;2.60;;
13366;SDS011;6752;52.612;13.630;2023-09-19T09:32:20;3.87;;;2.40;;
13366;SDS011;6752;52.612;13.630;2023-09-19T09:37:22;5.70;;;2.83;;
13366;SDS011;6752;52.612;13.630;2023-09-19T09:42:31;4.30;;;2.70;;
13366;SDS011;6752;52.612;13.630;2023-09-19T09:47:42;4.13;;;2.60;;
13366;SDS011;6752;52.612;13.630;2023-09-19T09:52:46;5.00;;;2.80;;
13366;SDS011;6752;52.612;13.630;2023-09-19T09:57:52;4.10;;;2.40;;
13366;SDS011;6752;52.612;13.630;2023-09-19T10:02:51;5.17;;;2.40;;
13366;SDS011;6752;52.612;13.630;2023-09-19T10:07:54;4.33;;;2.90;;
13366;SDS011;6752;52.612;13.630;2023-09-19T10:12:56;5.13;;;2.90;;
13366;SDS011;6752;52.612;13.630;2023-09-19T10:17:59;5.63;;;3.20;;
13366;SDS011;6752;52.612;13.630;2023-09-19T10:23:06;5.77;;;3.10;;
13366;SDS011;6752;52.612;13.630;2023-09-19T10:28:03;7.40;;;3.07;;
13366;SDS011;6752;52.612;13.630;2023-09-19T10:33:05;5.07;;;3.20;;
13366;SDS011;6752;52.612;13.630;2023-09-19T10:38:09;6.87;;;2.97;;
13366;SDS011;6752;52.612;13.630;2023-09-19T10:43:13;4.83;;;3.00;;
13366;SDS011;6752;52.612;13.630;2023-09-19T10:48:15;6.20;;;3.27;;
13366;SDS011;6752;52.612;13.630;2023-09-19T10:53:17;6.13;;;3.00;;
13366;SDS011;6752;52.612;13.630;2023-09-19T10:58:32;3.87;;;2.90;;
13366;SDS011;6752;52.612;13.630;2023-09-19T11:03:31;6.28;;;3.40;;
13366;SDS011;6752;52.612;13.630;2023-09-19T11:08:52;6.18;;;3.03;;
13366;SDS011;6752;52.612;13.630;2023-09-19T11:19:13;4.70;;;2.67;;
13366;SDS011;6752;52.612;13.630;2023-09-19T11:29:24;4.50;;;2.80;;
13366;SDS011;6752;52.612;13.630;2023-09-19T11:39:37;5.27;;;2.80;;
13366;SDS011;6752;52.612;13.630;2023-09-19T11:44:40;4.77;;;2.50;;
13366;SDS011;6752;52.612;13.630;2023-09-19T11:49:43;6.47;;;2.77;;
13366;SDS011;6752;52.612;13.630;2023-09-19T11:54:44;6.13;;;2.60;;
13366;SDS011;6752;52.612;13.630;2023-09-19T11:59:47;5.83;;;2.60;;
13366;SDS011;6752;52.612;13.630;2023-09-19T12:04:53;5.53;;;2.27;;
13366;SDS011;6752;52.612;13.630;2023-09-19T12:10:02;3.90;;;2.37;;
13366;SDS011;6752;52.612;13.630;2023-09-19T12:14:54;5.13;;;2.53;;
13366;SDS011;6752;52.612;13.630;2023-09-19T12:19:56;5.97;;;2.20;;
13366;SDS011;6752;52.612;13.630;2023-09-19T12:25:05;4.70;;;2.27;;
13366;SDS011;6752;52.612;13.630;2023-09-19T12:30:01;4.63;;;2.40;;
13366;SDS011;6752;52.612;13.630;2023-09-19T12:35:03;4.33;;;1.97;;
13366;SDS011;6752;52.612;13.630;2023-09-19T12:40:07;4.97;;;2.30;;
13366;SDS011;6752;52.612;13.630;2023-09-19T12:45:17;6.00;;;2.87;;
13366;SDS011;6752;52.612;13.630;2023-09-19T12:50:20;4.50;;;2.33;;
13366;SDS011;6752;52.612;13.630;2023-09-19T13:00:37;3.80;;;1.83;;
13366;SDS011;6752;52.612;13.630;2023-09-19T13:05:58;4.00;;;2.07;;
13366;SDS011;6752;52.612;13.630;2023-09-19T13:11:06;4.10;;;1.73;;
13366;SDS011;6752;52.612;13.630;2023-09-19T13:16:04;2.13;;;1.63;;
13366;SDS011;6752;52.612;13.630;2023-09-19T13:21:10;3.50;;;2.00;;
13366;SDS011;6752;52.612;13.630;2023-09-19T13:26:14;6.77;;;2.17;;
13366;SDS011;6752;52.612;13.630;2023-09-19T13:31:17;4.90;;;2.07;;
13366;SDS011;6752;52.612;13.630;2023-09-19T13:36:19;3.90;;;2.07;;
13366;SDS011;6752;52.612;13.630;2023-09-19T13:41:21;3.37;;;2.00;;
13366;SDS011;6752;52.612;13.630;2023-09-19T13:46:24;3.90;;;2.00;;
13366;SDS011;6752;52.612;13.630;2023-09-19T13:51:26;4.67;;;2.20;;
13366;SDS011;6752;52.612;13.630;2023-09-19T13:56:29;3.30;;;1.80;;
13366;SDS011;6752;52.612;13.630;2023-09-19T14:01:31;5.27;;;2.10;;
13366;SDS011;6752;52.612;13.630;2023-09-19T14:06:33;5.07;;;1.97;;
13366;SDS011;6752;52.612;13.630;2023-09-19T14:11:36;5.07;;;2.10;;
13366;SDS011;6752;52.612;13.630;2023-09-19T14:16:38;5.33;;;1.90;;
13366;SDS011;6752;52.612;13.630;2023-09-19T14:21:40;6.50;;;2.20;;
13366;SDS011;6752;52.612;13.630;2023-09-19T14:26:43;5.00;;;1.73;;
13366;SDS011;6752;52.612;13.630;2023-09-19T14:31:45;3.63;;;1.90;;
13366;SDS011;6752;52.612;13.630;2023-09-19T14:36:47;5.33;;;2.10;;
13366;SDS011;6752;52.612;13.630;2023-09-19T14:41:50;3.43;;;1.80;;
13366;SDS011;6752;52.612;13.630;2023-09-19T14:46:52;4.00;;;2.10;;
13366;SDS011;6752;52.612;13.630;2023-09-19T14:51:54;4.40;;;2.00;;
13366;SDS011;6752;52.612;13.630;2023-09-19T14:56:57;4.78;;;2.22;;
13366;SDS011;6752;52.612;13.630;2023-09-19T15:01:59;3.37;;;1.93;;
13366;SDS011;6752;52.612;13.630;2023-09-19T15:07:02;4.33;;;2.13;;
13366;SDS011;6752;52.612;13.630;2023-09-19T15:12:04;4.18;;;2.10;;
13366;SDS011;6752;52.612;13.630;2023-09-19T15:17:06;3.40;;;1.80;;
13366;SDS011;6752;52.612;13.630;2023-09-19T15:22:09;4.53;;;1.93;;
13366;SDS011;6752;52.612;13.630;2023-09-19T15:27:11;3.63;;;1.83;;
13366;SDS011;6752;52.612;13.630;2023-09-19T15:32:13;4.57;;;2.30;;
13366;SDS011;6752;52.612;13.630;2023-09-19T15:37:16;4.20;;;2.07;;
13366;SDS011;6752;52.612;13.630;2023-09-19T15:42:18;4.82;;;2.40;;
13366;SDS011;6752;52.612;13.630;2023-09-19T15:47:20;3.33;;;2.20;;
13366;SDS011;6752;52.612;13.630;2023-09-19T15:52:23;3.23;;;2.10;;
13366;SDS011;6752;52.612;13.630;2023-09-19T15:57:25;3.77;;;2.07;;
13366;SDS011;6752;52.612;13.630;2023-09-19T16:02:28;8.00;;;2.70;;
13366;SDS011;6752;52.612;13.630;2023-09-19T16:07:31;3.83;;;2.10;;
13366;SDS011;6752;52.612;13.630;2023-09-19T16:12:32;5.27;;;2.23;;
13366;SDS011;6752;52.612;13.630;2023-09-19T16:17:35;2.97;;;1.87;;
13366;SDS011;6752;52.612;13.630;2023-09-19T16:22:38;5.23;;;2.20;;
13366;SDS011;6752;52.612;13.630;2023-09-19T16:27:42;4.57;;;2.43;;
13366;SDS011;6752;52.612;13.630;2023-09-19T16:32:44;4.07;;;2.27;;
13366;SDS011;6752;52.612;13.630;2023-09-19T16:37:47;4.47;;;2.37;;
13366;SDS011;6752;52.612;13.630;2023-09-19T16:42:49;4.17;;;2.13;;
13366;SDS011;6752;52.612;13.630;2023-09-19T16:47:52;3.67;;;2.17;;
13366;SDS011;6752;52.612;13.630;2023-09-19T16:52:54;4.77;;;2.30;;
13366;SDS011;6752;52.612;13.630;2023-09-19T16:57:58;5.20;;;2.20;;
13366;SDS011;6752;52.612;13.630;2023-09-19T17:02:59;4.17;;;2.30;;
13366;SDS011;6752;52.612;13.630;2023-09-19T17:08:01;4.27;;;2.33;;
13366;SDS011;6752;52.612;13.630;2023-09-19T17:13:03;4.83;;;2.40;;
13366;SDS011;6752;52.612;13.630;2023-09-19T17:18:08;5.93;;;2.83;;
13366;SDS011;6752;52.612;13.630;2023-09-19T17:23:10;4.40;;;2.40;;
13366;SDS011;6752;52.612;13.630;2023-09-19T17:28:13;4.43;;;2.40;;
13366;SDS011;6752;52.612;13.630;2023-09-19T17:33:15;5.07;;;2.70;;
13366;SDS011;6752;52.612;13.630;2023-09-19T17:38:18;5.27;;;2.80;;
13366;SDS011;6752;52.612;13.630;2023-09-19T17:43:20;4.57;;;2.47;;
13366;SDS011;6752;52.612;13.630;2023-09-19T17:48:22;3.73;;;2.60;;
13366;SDS011;6752;52.612;13.630;2023-09-19T17:53:25;5.17;;;2.80;;
13366;SDS011;6752;52.612;13.630;2023-09-19T17:58:27;5.10;;;2.73;;
13366;SDS011;6752;52.612;13.630;2023-09-19T18:03:29;6.37;;;2.90;;
13366;SDS011;6752;52.612;13.630;2023-09-19T18:08:32;5.73;;;3.00;;
13366;SDS011;6752;52.612;13.630;2023-09-19T18:13:34;5.10;;;2.77;;
13366;SDS011;6752;52.612;13.630;2023-09-19T18:18:36;5.50;;;2.90;;
13366;SDS011;6752;52.612;13.630;2023-09-19T18:23:39;6.20;;;3.07;;
13366;SDS011;6752;52.612;13.630;2023-09-19T18:28:41;4.60;;;3.23;;
13366;SDS011;6752;52.612;13.630;2023-09-19T18:33:43;4.83;;;2.93;;
13366;SDS011;6752;52.612;13.630;2023-09-19T18:38:46;6.93;;;2.93;;
13366;SDS011;6752;52.612;13.630;2023-09-19T18:43:48;5.97;;;2.87;;
13366;SDS011;6752;52.612;13.630;2023-09-19T18:48:51;5.93;;;2.90;;
13366;SDS011;6752;52.612;13.630;2023-09-19T18:53:53;3.70;;;2.57;;
13366;SDS011;6752;52.612;13.630;2023-09-19T18:58:55;7.17;;;2.80;;
13366;SDS011;6752;52.612;13.630;2023-09-19T19:03:58;5.10;;;3.17;;
13366;SDS011;6752;52.612;13.630;2023-09-19T19:09:00;4.23;;;3.20;;
13366;SDS011;6752;52.612;13.630;2023-09-19T19:14:02;6.43;;;3.00;;
13366;SDS011;6752;52.612;13.630;2023-09-19T19:19:05;5.30;;;2.87;;
13366;SDS011;6752;52.612;13.630;2023-09-19T19:24:07;6.40;;;3.35;;
13366;SDS011;6752;52.612;13.630;2023-09-19T19:29:09;5.70;;;2.90;;
13366;SDS011;6752;52.612;13.630;2023-09-19T19:34:12;4.67;;;3.10;;
13366;SDS011;6752;52.612;13.630;2023-09-19T19:39:14;5.37;;;2.60;;
13366;SDS011;6752;52.612;13.630;2023-09-19T19:44:17;4.23;;;2.80;;
13366;SDS011;6752;52.612;13.630;2023-09-19T19:49:19;5.20;;;2.70;;
13366;SDS011;6752;52.612;13.630;2023-09-19T19:54:21;4.07;;;2.47;;
13366;SDS011;6752;52.612;13.630;2023-09-19T19:59:23;5.63;;;2.60;;
13366;SDS011;6752;52.612;13.630;2023-09-19T20:04:26;5.13;;;2.50;;
13366;SDS011;6752;52.612;13.630;2023-09-19T20:09:28;5.97;;;2.50;;
13366;SDS011;6752;52.612;13.630;2023-09-19T20:14:31;5.17;;;2.57;;
13366;SDS011;6752;52.612;13.630;2023-09-19T20:19:33;5.53;;;2.73;;
13366;SDS011;6752;52.612;13.630;2023-09-19T20:24:36;4.90;;;2.27;;
13366;SDS011;6752;52.612;13.630;2023-09-19T20:29:38;4.00;;;2.50;;
13366;SDS011;6752;52.612;13.630;2023-09-19T20:34:40;4.27;;;2.60;;
13366;SDS011;6752;52.612;13.630;2023-09-19T20:39:43;4.37;;;2.40;;
13366;SDS011;6752;52.612;13.630;2023-09-19T20:44:45;4.57;;;2.80;;
13366;SDS011;6752;52.612;13.630;2023-09-19T20:49:47;4.70;;;2.70;;
13366;SDS011;6752;52.612;13.630;2023-09-19T20:54:50;5.03;;;2.50;;
13366;SDS011;6752;52.612;13.630;2023-09-19T20:59:52;5.30;;;2.80;;
13366;SDS011;6752;52.612;13.630;2023-09-19T21:04:55;8.03;;;2.97;;
13366;SDS011;6752;52.612;13.630;2023-09-19T21:09:57;6.13;;;2.80;;
13366;SDS011;6752;52.612;13.630;2023-09-19T21:14:59;4.53;;;2.47;;
13366;SDS011;6752;52.612;13.630;2023-09-19T21:20:02;5.07;;;2.80;;
13366;SDS011;6752;52.612;13.630;2023-09-19T21:25:04;4.83;;;2.50;;
13366;SDS011;6752;52.612;13.630;2023-09-19T21:30:06;4.97;;;2.50;;
13366;SDS011;6752;52.612;13.630;2023-09-19T21:35:09;5.37;;;2.67;;
13366;SDS011;6752;52.612;13.630;2023-09-19T21:40:11;5.07;;;2.73;;
13366;SDS011;6752;52.612;13.630;2023-09-19T21:45:13;5.97;;;2.93;;
13366;SDS011;6752;52.612;13.630;2023-09-19T21:50:16;5.50;;;2.83;;
13366;SDS011;6752;52.612;13.630;2023-09-19T21:55:18;6.40;;;2.63;;
13366;SDS011;6752;52.612;13.630;2023-09-19T22:00:21;4.50;;;2.97;;
13366;SDS011;6752;52.612;13.630;2023-09-19T22:05:26;6.53;;;2.90;;
13366;SDS011;6752;52.612;13.630;2023-09-19T22:10:28;4.63;;;2.40;;
13366;SDS011;6752;52.612;13.630;2023-09-19T22:15:32;4.67;;;2.50;;
13366;SDS011;6752;52.612;13.630;2023-09-19T22:20:33;5.03;;;2.83;;
13366;SDS011;6752;52.612;13.630;2023-09-19T22:25:35;5.23;;;2.87;;
13366;SDS011;6752;52.612;13.630;2023-09-19T22:30:38;4.80;;;2.50;;
13366;SDS011;6752;52.612;13.630;2023-09-19T22:35:40;5.95;;;3.20;;
13366;SDS011;6752;52.612;13.630;2023-09-19T22:40:42;6.50;;;3.10;;
13366;SDS011;6752;52.612;13.630;2023-09-19T22:45:48;5.73;;;3.10;;
13366;SDS011;6752;52.612;13.630;2023-09-19T22:50:50;4.87;;;2.80;;
13366;SDS011;6752;52.612;13.630;2023-09-19T22:55:52;5.47;;;3.00;;
13366;SDS011;6752;52.612;13.630;2023-09-19T23:00:55;6.32;;;2.92;;
13366;SDS011;6752;52.612;13.630;2023-09-19T23:05:57;4.07;;;2.60;;
13366;SDS011;6752;52.612;13.630;2023-09-19T23:11:01;5.27;;;2.70;;
13366;SDS011;6752;52.612;13.630;2023-09-19T23:16:02;5.70;;;3.00;;
13366;SDS011;6752;52.612;13.630;2023-09-19T23:21:04;6.23;;;2.60;;
13366;SDS011;6752;52.612;13.630;2023-09-19T23:26:06;6.87;;;3.10;;
13366;SDS011;6752;52.612;13.630;2023-09-19T23:31:09;5.47;;;2.83;;
13366;SDS011;6752;52.612;13.630;2023-09-19T23:36:11;5.67;;;2.97;;
13366;SDS011;6752;52.612;13.630;2023-09-19T23:41:13;4.97;;;2.90;;
13366;SDS011;6752;52.612;13.630;2023-09-19T23:46:19;5.33;;;2.83;;
13366;SDS011;6752;52.612;13.630;2023-09-19T23:51:21;5.17;;;2.57;;
13366;SDS011;6752;52.612;13.630;2023-09-19T23:56:23;4.23;;;2.50;;
